createdAt,value
2019-03-09T00:00:35.590Z,8.58
2019-03-09T00:03:02.975Z,7.85
2019-03-09T00:05:30.257Z,9.40
2019-03-09T00:07:57.636Z,9.18
2019-03-09T00:10:24.927Z,9.78
2019-03-09T00:12:52.209Z,8.00
2019-03-09T00:15:19.717Z,8.45
2019-03-09T00:17:47.006Z,7.58
2019-03-09T00:20:14.310Z,7.72
2019-03-09T00:22:43.234Z,8.45
2019-03-09T00:25:14.974Z,8.00
2019-03-09T00:27:43.899Z,8.48
2019-03-09T00:30:18.757Z,7.95
2019-03-09T00:32:46.032Z,8.15
2019-03-09T00:35:13.328Z,8.08
2019-03-09T00:37:40.646Z,9.28
2019-03-09T00:40:09.211Z,7.80
2019-03-09T00:42:36.607Z,7.90
2019-03-09T00:45:04.501Z,7.10
2019-03-09T00:47:31.767Z,7.55
2019-03-09T00:49:59.068Z,8.75
2019-03-09T00:52:26.376Z,7.60
2019-03-09T00:54:53.675Z,7.85
2019-03-09T00:57:21.278Z,7.55
2019-03-09T00:59:50.190Z,7.67
2019-03-09T01:02:17.492Z,7.42
2019-03-09T01:04:44.797Z,7.62
2019-03-09T01:07:12.087Z,7.58
2019-03-09T01:09:39.410Z,9.33
2019-03-09T01:12:06.703Z,8.80
2019-03-09T01:14:33.981Z,7.25
2019-03-09T01:17:01.293Z,9.60
2019-03-09T01:19:28.586Z,8.30
2019-03-09T01:21:55.928Z,7.47
2019-03-09T01:24:23.214Z,8.30
2019-03-09T01:26:50.491Z,8.60
2019-03-09T01:29:17.805Z,6.95
2019-03-09T01:31:45.094Z,9.50
2019-03-09T01:34:12.391Z,8.85
2019-03-09T01:36:39.687Z,8.23
2019-03-09T01:39:06.986Z,8.20
2019-03-09T01:41:34.276Z,10.60
2019-03-09T01:44:01.677Z,8.13
2019-03-09T01:46:28.989Z,8.10
2019-03-09T01:48:56.264Z,8.15
2019-03-09T01:51:23.542Z,7.60
2019-03-09T01:53:50.862Z,8.58
2019-03-09T01:56:18.158Z,8.15
2019-03-09T01:58:45.504Z,8.90
2019-03-09T02:01:12.762Z,7.62
2019-03-09T02:03:40.054Z,7.33
2019-03-09T02:06:07.375Z,7.40
2019-03-09T02:08:34.694Z,9.28
2019-03-09T02:11:02.039Z,7.53
2019-03-09T02:13:29.330Z,7.95
2019-03-09T02:15:56.646Z,8.23
2019-03-09T02:18:23.963Z,7.17
2019-03-09T02:20:51.257Z,8.13
2019-03-09T02:23:18.538Z,8.25
2019-03-09T02:25:45.851Z,7.97
2019-03-09T02:28:13.143Z,7.33
2019-03-09T02:30:40.430Z,8.00
2019-03-09T02:33:07.740Z,6.72
2019-03-09T02:35:35.037Z,8.18
2019-03-09T02:38:03.965Z,7.20
2019-03-09T02:40:31.287Z,8.63
2019-03-09T02:42:58.573Z,7.72
2019-03-09T02:45:27.630Z,7.55
2019-03-09T02:47:54.949Z,7.37
2019-03-09T02:50:22.223Z,7.78
2019-03-09T02:52:49.509Z,6.92
2019-03-09T02:55:16.826Z,6.95
2019-03-09T02:57:44.138Z,7.20
2019-03-09T03:00:17.552Z,6.65
2019-03-09T03:02:46.488Z,6.35
2019-03-09T03:05:13.777Z,6.80
2019-03-09T03:07:41.100Z,8.05
2019-03-09T03:10:08.657Z,7.00
2019-03-09T03:12:35.936Z,7.10
2019-03-09T03:15:03.918Z,7.50
2019-03-09T03:17:31.202Z,8.40
2019-03-09T03:19:58.512Z,7.15
2019-03-09T03:22:25.813Z,6.80
2019-03-09T03:24:53.103Z,7.53
2019-03-09T03:27:20.421Z,6.60
2019-03-09T03:29:47.712Z,6.60
2019-03-09T03:32:14.994Z,8.30
2019-03-09T03:34:42.298Z,7.40
2019-03-09T03:37:09.593Z,6.20
2019-03-09T03:39:36.882Z,6.60
2019-03-09T03:42:04.190Z,6.00
2019-03-09T03:44:33.110Z,8.20
2019-03-09T03:47:00.414Z,6.92
2019-03-09T03:49:27.694Z,6.62
2019-03-09T03:51:55.010Z,6.10
2019-03-09T03:54:22.316Z,8.78
2019-03-09T03:56:49.603Z,5.30
2019-03-09T03:59:16.891Z,6.62
2019-03-09T04:01:44.222Z,7.12
2019-03-09T04:04:11.502Z,6.53
2019-03-09T04:06:38.792Z,6.25
2019-03-09T04:09:06.169Z,7.03
2019-03-09T04:11:33.458Z,5.80
2019-03-09T04:14:00.772Z,6.40
2019-03-09T04:16:28.058Z,8.38
2019-03-09T04:18:55.358Z,6.47
2019-03-09T04:21:22.674Z,6.85
2019-03-09T04:23:49.973Z,6.00
2019-03-09T04:26:17.263Z,6.95
2019-03-09T04:28:44.574Z,6.37
2019-03-09T04:31:11.853Z,6.62
2019-03-09T04:33:39.158Z,5.20
2019-03-09T04:36:06.441Z,6.10
2019-03-09T04:38:33.763Z,6.33
2019-03-09T04:41:01.047Z,5.72
2019-03-09T04:43:28.320Z,5.97
2019-03-09T04:45:55.625Z,5.42
2019-03-09T04:48:22.908Z,4.85
2019-03-09T04:50:50.197Z,7.22
2019-03-09T04:53:17.512Z,5.53
2019-03-09T04:55:44.858Z,5.70
2019-03-09T04:58:12.166Z,6.05
2019-03-09T05:00:39.453Z,4.90
2019-03-09T05:03:06.738Z,5.33
2019-03-09T05:05:34.049Z,6.30
2019-03-09T05:08:03.110Z,6.05
2019-03-09T05:10:32.172Z,6.20
2019-03-09T05:13:01.276Z,5.85
2019-03-09T05:15:28.563Z,7.05
2019-03-09T05:17:55.840Z,6.83
2019-03-09T05:20:23.160Z,6.08
2019-03-09T05:22:50.444Z,7.70
2019-03-09T05:25:17.754Z,8.18
2019-03-09T05:27:45.065Z,8.28
2019-03-09T05:30:14.014Z,7.90
2019-03-09T05:32:41.301Z,7.08
2019-03-09T05:35:08.598Z,7.70
2019-03-09T05:37:42.928Z,7.95
2019-03-09T05:40:05.517Z,8.25
2019-03-09T05:42:32.810Z,7.65
2019-03-09T05:45:00.306Z,7.65
2019-03-09T05:47:27.717Z,8.55
2019-03-09T05:49:55.002Z,7.35
2019-03-09T05:52:23.941Z,9.55
2019-03-09T05:54:51.234Z,11.28
2019-03-09T05:57:18.574Z,11.43
2019-03-09T05:59:45.893Z,13.08
2019-03-09T06:02:13.182Z,9.45
2019-03-09T06:04:40.465Z,10.93
2019-03-09T06:07:07.798Z,11.45
2019-03-09T06:09:35.102Z,16.20
2019-03-09T06:12:02.387Z,13.85
2019-03-09T06:14:29.713Z,14.20
2019-03-09T06:16:57.007Z,14.20
2019-03-09T06:19:24.316Z,15.20
2019-03-09T06:21:51.623Z,12.88
2019-03-09T06:24:18.946Z,10.78
2019-03-09T06:26:46.246Z,11.28
2019-03-09T06:29:13.533Z,11.55
2019-03-09T06:31:42.490Z,10.15
2019-03-09T06:34:09.777Z,10.15
2019-03-09T06:36:38.730Z,10.53
2019-03-09T06:39:06.686Z,11.97
2019-03-09T06:41:38.554Z,14.30
2019-03-09T06:44:05.866Z,11.90
2019-03-09T06:46:33.181Z,10.58
2019-03-09T06:49:00.469Z,8.63
2019-03-09T06:51:27.763Z,10.40
2019-03-09T06:53:55.084Z,14.18
2019-03-09T06:56:22.364Z,9.40
2019-03-09T06:58:49.691Z,9.75
2019-03-09T07:01:17.866Z,9.75
2019-03-09T07:03:45.156Z,9.30
2019-03-09T07:06:12.472Z,8.30
2019-03-09T07:08:39.758Z,9.83
2019-03-09T07:11:07.046Z,8.40
2019-03-09T07:13:34.344Z,8.13
2019-03-09T07:16:01.635Z,7.70
2019-03-09T07:18:28.954Z,11.43
2019-03-09T07:20:56.238Z,7.78
2019-03-09T07:23:23.535Z,9.10
2019-03-09T07:25:50.848Z,7.35
2019-03-09T07:28:18.154Z,7.85
2019-03-09T07:30:45.543Z,7.55
2019-03-09T07:33:12.867Z,6.65
2019-03-09T07:35:40.150Z,9.08
2019-03-09T07:38:07.428Z,8.25
2019-03-09T07:40:34.747Z,6.40
2019-03-09T07:43:04.119Z,7.25
2019-03-09T07:45:30.966Z,6.05
2019-03-09T07:47:58.272Z,6.55
2019-03-09T07:50:25.570Z,5.83
2019-03-09T07:52:52.849Z,6.08
2019-03-09T07:55:20.930Z,6.22
2019-03-09T07:57:48.237Z,6.25
2019-03-09T08:00:21.696Z,5.65
2019-03-09T08:02:48.985Z,5.15
2019-03-09T08:05:16.278Z,5.58
2019-03-09T08:07:43.624Z,5.00
2019-03-09T08:10:12.560Z,5.30
2019-03-09T08:12:39.850Z,5.80
2019-03-09T08:15:08.781Z,4.62
2019-03-09T08:17:36.080Z,5.03
2019-03-09T08:20:03.630Z,5.10
2019-03-09T08:22:30.942Z,4.80
2019-03-09T08:24:58.230Z,4.67
2019-03-09T08:27:25.528Z,4.45
2019-03-09T08:29:52.833Z,5.28
2019-03-09T08:32:20.120Z,4.50
2019-03-09T08:34:47.405Z,4.83
2019-03-09T08:37:14.737Z,4.75
2019-03-09T08:39:41.999Z,4.65
2019-03-09T08:42:09.305Z,4.35
2019-03-09T08:44:36.614Z,4.30
2019-03-09T08:47:03.910Z,4.60
2019-03-09T08:49:31.259Z,3.95
2019-03-09T08:51:58.588Z,3.98
2019-03-09T08:54:25.872Z,4.67
2019-03-09T08:56:53.206Z,4.12
2019-03-09T08:59:20.473Z,3.62
2019-03-09T09:01:47.771Z,4.00
2019-03-09T09:04:15.070Z,4.10
2019-03-09T09:06:42.350Z,3.75
2019-03-09T09:09:09.660Z,3.75
2019-03-09T09:11:36.937Z,3.50
2019-03-09T09:14:04.240Z,3.45
2019-03-09T09:16:31.522Z,3.87
2019-03-09T09:18:58.831Z,3.50
2019-03-09T09:21:26.118Z,3.25
2019-03-09T09:23:53.434Z,2.90
2019-03-09T09:26:20.697Z,3.10
2019-03-09T09:28:47.975Z,3.52
2019-03-09T09:31:15.291Z,3.00
2019-03-09T09:33:42.596Z,2.98
2019-03-09T09:36:09.892Z,3.17
2019-03-09T09:38:37.203Z,3.05
2019-03-09T09:41:04.490Z,3.60
2019-03-09T09:43:31.779Z,3.05
2019-03-09T09:45:59.087Z,3.10
2019-03-09T09:48:26.369Z,2.72
2019-03-09T09:50:53.695Z,2.80
2019-03-09T09:53:23.293Z,2.77
2019-03-09T09:55:49.905Z,3.00
2019-03-09T09:58:17.219Z,4.25
2019-03-09T10:00:44.496Z,3.05
2019-03-09T10:03:11.800Z,2.92
2019-03-09T10:05:39.109Z,2.80
2019-03-09T10:08:06.395Z,2.70
2019-03-09T10:10:33.686Z,2.67
2019-03-09T10:13:00.992Z,2.80
2019-03-09T10:15:29.062Z,3.22
2019-03-09T10:17:56.340Z,2.60
2019-03-09T10:20:23.654Z,2.60
2019-03-09T10:22:50.930Z,2.40
2019-03-09T10:25:18.248Z,2.55
2019-03-09T10:27:45.531Z,3.20
2019-03-09T10:30:20.125Z,3.80
2019-03-09T10:32:47.441Z,3.80
2019-03-09T10:35:14.734Z,3.10
2019-03-09T10:37:42.018Z,4.35
2019-03-09T10:40:10.305Z,2.50
2019-03-09T10:42:37.596Z,2.72
2019-03-09T10:45:06.027Z,2.90
2019-03-09T10:47:33.690Z,2.80
2019-03-09T10:50:01.026Z,2.90
2019-03-09T10:52:28.342Z,2.45
2019-03-09T10:54:55.646Z,2.17
2019-03-09T10:57:22.943Z,2.52
2019-03-09T10:59:50.267Z,2.50
2019-03-09T11:02:17.558Z,3.33
2019-03-09T11:04:44.849Z,2.15
2019-03-09T11:07:12.142Z,1.95
2019-03-09T11:09:39.451Z,2.10
2019-03-09T11:12:06.743Z,2.67
2019-03-09T11:14:34.067Z,2.45
2019-03-09T11:17:01.329Z,2.87
2019-03-09T11:19:28.958Z,2.65
2019-03-09T11:21:56.504Z,3.00
2019-03-09T11:24:24.383Z,2.98
2019-03-09T11:26:51.742Z,3.20
2019-03-09T11:29:19.017Z,3.25
2019-03-09T11:31:46.833Z,3.17
2019-03-09T11:34:14.434Z,2.95
2019-03-09T11:36:41.872Z,3.50
2019-03-09T11:39:09.629Z,3.80
2019-03-09T11:41:37.170Z,3.75
2019-03-09T11:44:04.614Z,3.20
2019-03-09T11:46:31.947Z,3.33
2019-03-09T11:48:59.267Z,2.85
2019-03-09T11:51:26.574Z,3.20
2019-03-09T11:53:53.876Z,3.00
2019-03-09T11:56:21.238Z,2.60
2019-03-09T11:58:48.555Z,2.65
2019-03-09T12:01:15.848Z,3.25
2019-03-09T12:03:43.166Z,2.60
2019-03-09T12:06:10.456Z,2.70
2019-03-09T12:08:37.771Z,2.37
2019-03-09T12:11:05.086Z,4.45
2019-03-09T12:13:32.364Z,2.67
2019-03-09T12:15:59.681Z,3.20
2019-03-09T12:18:27.019Z,4.80
2019-03-09T12:20:54.276Z,2.70
2019-03-09T12:23:22.334Z,2.87
2019-03-09T12:25:49.722Z,3.00
2019-03-09T12:28:17.013Z,3.60
2019-03-09T12:30:44.319Z,3.87
2019-03-09T12:33:11.654Z,3.65
2019-03-09T12:35:38.949Z,4.10
2019-03-09T12:38:06.237Z,3.90
2019-03-09T12:40:33.540Z,3.83
2019-03-09T12:43:00.872Z,3.92
2019-03-09T12:45:28.188Z,3.77
2019-03-09T12:47:55.537Z,3.80
2019-03-09T12:50:23.322Z,3.55
2019-03-09T12:52:50.611Z,3.95
2019-03-09T12:55:17.898Z,4.92
2019-03-09T12:57:45.204Z,4.30
2019-03-09T13:00:13.850Z,4.00
2019-03-09T13:02:41.150Z,3.65
2019-03-09T13:05:08.443Z,4.10
2019-03-09T13:07:35.755Z,4.22
2019-03-09T13:10:03.505Z,4.05
2019-03-09T13:12:30.797Z,3.60
2019-03-09T13:14:58.110Z,5.35
2019-03-09T13:17:25.398Z,3.62
2019-03-09T13:19:52.710Z,3.90
2019-03-09T13:22:19.993Z,3.60
2019-03-09T13:24:47.287Z,3.70
2019-03-09T13:27:14.621Z,4.10
2019-03-09T13:29:42.066Z,4.10
2019-03-09T13:32:09.316Z,3.55
2019-03-09T13:34:36.641Z,3.87
2019-03-09T13:37:03.919Z,3.80
2019-03-09T13:39:31.202Z,3.42
2019-03-09T13:41:58.525Z,3.80
2019-03-09T13:44:25.820Z,3.67
2019-03-09T13:46:53.112Z,3.70
2019-03-09T13:49:20.467Z,4.62
2019-03-09T13:51:47.760Z,7.30
2019-03-09T13:54:15.074Z,5.10
2019-03-09T13:56:42.374Z,4.70
2019-03-09T13:59:09.667Z,4.50
2019-03-09T14:01:36.980Z,9.88
2019-03-09T14:04:04.274Z,6.15
2019-03-09T14:06:31.554Z,5.28
2019-03-09T14:09:00.894Z,4.75
2019-03-09T14:11:27.810Z,5.75
2019-03-09T14:13:55.102Z,5.53
2019-03-09T14:16:22.445Z,5.75
2019-03-09T14:18:49.719Z,16.23
2019-03-09T14:21:17.021Z,5.30
2019-03-09T14:23:44.315Z,5.12
2019-03-09T14:26:11.596Z,5.53
2019-03-09T14:28:38.937Z,17.67
2019-03-09T14:31:06.230Z,22.65
2019-03-09T14:33:33.537Z,13.20
2019-03-09T14:36:00.845Z,12.10
2019-03-09T14:38:28.174Z,19.23
2019-03-09T14:40:55.473Z,7.60
2019-03-09T14:43:22.733Z,2.30
2019-03-09T14:45:50.063Z,12.58
2019-03-09T14:48:17.340Z,2.37
2019-03-09T14:50:44.634Z,21.77
2019-03-09T14:53:11.953Z,19.07
2019-03-09T14:55:39.250Z,22.22
2019-03-09T14:58:06.560Z,39.23
2019-03-09T15:00:33.853Z,2.40
2019-03-09T15:03:01.154Z,5.50
2019-03-09T15:05:28.464Z,10.60
2019-03-09T15:07:55.752Z,2.55
2019-03-09T15:10:23.033Z,29.10
2019-03-09T15:12:50.351Z,4.17
2019-03-09T15:15:18.230Z,5.90
2019-03-09T15:17:45.549Z,3.70
2019-03-09T15:20:13.619Z,5.47
2019-03-09T15:22:40.916Z,3.17
2019-03-09T15:25:20.170Z,2.83
2019-03-09T15:27:47.632Z,2.70
2019-03-09T15:30:16.573Z,2.80
2019-03-09T15:32:43.865Z,3.58
2019-03-09T15:35:11.155Z,2.87
2019-03-09T15:37:38.476Z,5.90
2019-03-09T15:40:07.430Z,2.62
2019-03-09T15:42:34.715Z,2.90
2019-03-09T15:45:02.028Z,2.85
2019-03-09T15:47:29.316Z,7.50
2019-03-09T15:49:56.622Z,3.52
2019-03-09T15:52:23.907Z,2.70
2019-03-09T15:54:51.218Z,3.08
2019-03-09T15:57:18.493Z,2.70
2019-03-09T15:59:45.776Z,5.60
2019-03-09T16:02:13.136Z,3.20
2019-03-09T16:04:40.370Z,2.85
2019-03-09T16:07:07.668Z,2.90
2019-03-09T16:09:34.963Z,2.90
2019-03-09T16:12:02.241Z,2.70
2019-03-09T16:14:29.551Z,2.50
2019-03-09T16:16:56.834Z,2.65
2019-03-09T16:19:24.141Z,2.60
2019-03-09T16:21:51.428Z,2.80
2019-03-09T16:24:18.741Z,2.80
2019-03-09T16:26:46.094Z,3.00
2019-03-09T16:29:13.407Z,2.85
2019-03-09T16:31:40.699Z,3.12
2019-03-09T16:34:07.985Z,3.45
2019-03-09T16:36:35.321Z,3.17
2019-03-09T16:39:02.605Z,3.25
2019-03-09T16:41:29.918Z,2.95
2019-03-09T16:43:57.216Z,4.00
2019-03-09T16:46:24.520Z,3.62
2019-03-09T16:48:51.821Z,4.20
2019-03-09T16:51:19.124Z,4.37
2019-03-09T16:53:46.434Z,4.53
2019-03-09T16:56:13.718Z,4.90
2019-03-09T16:58:41.037Z,4.78
2019-03-09T17:01:08.309Z,4.60
2019-03-09T17:03:35.638Z,4.30
2019-03-09T17:06:02.915Z,4.90
2019-03-09T17:08:30.216Z,4.00
2019-03-09T17:10:57.538Z,4.15
2019-03-09T17:13:24.824Z,4.12
2019-03-09T17:15:52.135Z,4.00
2019-03-09T17:18:19.431Z,3.77
2019-03-09T17:20:46.709Z,3.40
2019-03-09T17:23:14.031Z,4.30
2019-03-09T17:25:41.331Z,3.65
2019-03-09T17:28:08.625Z,3.90
2019-03-09T17:30:35.923Z,3.50
2019-03-09T17:33:03.237Z,4.05
2019-03-09T17:35:32.962Z,3.65
2019-03-09T17:38:00.209Z,3.95
2019-03-09T17:40:27.533Z,3.98
2019-03-09T17:42:54.809Z,3.58
2019-03-09T17:45:22.875Z,3.55
2019-03-09T17:47:50.193Z,3.42
2019-03-09T17:50:17.478Z,3.40
2019-03-09T17:52:44.768Z,4.05
2019-03-09T17:55:12.145Z,4.00
2019-03-09T17:57:39.439Z,3.55
2019-03-09T18:00:08.418Z,3.90
2019-03-09T18:02:35.727Z,3.70
2019-03-09T18:05:03.039Z,3.65
2019-03-09T18:07:30.317Z,3.40
2019-03-09T18:09:57.618Z,4.40
2019-03-09T18:12:24.926Z,3.62
2019-03-09T18:14:52.212Z,4.25
2019-03-09T18:17:19.521Z,3.70
2019-03-09T18:19:46.820Z,3.45
2019-03-09T18:22:14.122Z,3.55
2019-03-09T18:24:41.439Z,3.15
2019-03-09T18:27:08.719Z,3.72
2019-03-09T18:29:36.015Z,3.30
2019-03-09T18:32:03.339Z,3.35
2019-03-09T18:34:31.486Z,3.65
2019-03-09T18:36:58.789Z,2.98
2019-03-09T18:39:26.099Z,4.78
2019-03-09T18:41:53.463Z,3.33
2019-03-09T18:44:20.741Z,4.15
2019-03-09T18:46:48.059Z,3.40
2019-03-09T18:49:15.370Z,4.03
2019-03-09T18:51:42.649Z,3.75
2019-03-09T18:54:09.942Z,3.65
2019-03-09T18:56:37.251Z,3.33
2019-03-09T18:59:04.535Z,3.50
2019-03-09T19:01:31.876Z,3.60
2019-03-09T19:03:59.133Z,3.22
2019-03-09T19:06:26.431Z,4.00
2019-03-09T19:08:53.747Z,3.27
2019-03-09T19:11:21.036Z,3.75
2019-03-09T19:13:48.328Z,3.67
2019-03-09T19:16:15.629Z,3.90
2019-03-09T19:18:42.920Z,3.47
2019-03-09T19:21:10.235Z,3.60
2019-03-09T19:23:37.528Z,4.45
2019-03-09T19:26:04.819Z,4.60
2019-03-09T19:28:32.133Z,5.45
2019-03-09T19:30:59.426Z,5.55
2019-03-09T19:33:26.724Z,5.30
2019-03-09T19:35:54.026Z,6.37
2019-03-09T19:38:21.342Z,6.75
2019-03-09T19:40:48.639Z,5.33
2019-03-09T19:43:15.926Z,8.40
2019-03-09T19:45:43.234Z,7.20
2019-03-09T19:48:10.537Z,7.35
2019-03-09T19:50:37.828Z,9.55
2019-03-09T19:53:05.123Z,8.05
2019-03-09T19:55:32.439Z,9.23
2019-03-09T19:57:59.753Z,8.15
2019-03-09T20:00:27.046Z,7.20
2019-03-09T20:02:54.332Z,8.10
2019-03-09T20:05:21.647Z,10.48
2019-03-09T20:07:48.942Z,11.95
2019-03-09T20:10:16.810Z,10.68
2019-03-09T20:12:44.122Z,11.48
2019-03-09T20:15:12.494Z,12.35
2019-03-09T20:17:39.795Z,11.93
2019-03-09T20:20:11.106Z,10.63
2019-03-09T20:22:38.394Z,11.97
2019-03-09T20:25:06.545Z,9.33
2019-03-09T20:27:33.873Z,12.20
2019-03-09T20:30:01.171Z,8.08
2019-03-09T20:32:28.471Z,9.03
2019-03-09T20:34:55.805Z,8.38
2019-03-09T20:37:23.098Z,8.58
2019-03-09T20:39:50.548Z,11.57
2019-03-09T20:42:17.836Z,11.00
2019-03-09T20:44:45.205Z,11.05
2019-03-09T20:47:12.550Z,10.98
2019-03-09T20:49:39.874Z,8.58
2019-03-09T20:52:07.266Z,8.85
2019-03-09T20:54:34.554Z,8.55
2019-03-09T20:57:01.863Z,9.00
2019-03-09T20:59:29.240Z,10.32
2019-03-09T21:01:56.509Z,8.60
2019-03-09T21:04:23.804Z,8.43
2019-03-09T21:06:51.189Z,9.23
2019-03-09T21:09:18.504Z,9.15
2019-03-09T21:11:45.807Z,8.18
2019-03-09T21:14:13.119Z,8.20
2019-03-09T21:16:40.422Z,6.83
2019-03-09T21:19:07.762Z,7.78
2019-03-09T21:21:35.095Z,7.17
2019-03-09T21:24:02.390Z,6.50
2019-03-09T21:26:29.735Z,7.00
2019-03-09T21:28:57.038Z,7.10
2019-03-09T21:31:24.368Z,7.95
2019-03-09T21:33:51.667Z,8.05
2019-03-09T21:36:19.039Z,8.08
2019-03-09T21:38:46.338Z,7.75
2019-03-09T21:41:13.654Z,11.75
2019-03-09T21:43:40.951Z,8.75
2019-03-09T21:46:08.243Z,9.00
2019-03-09T21:48:35.566Z,12.82
2019-03-09T21:51:02.852Z,14.28
2019-03-09T21:53:30.173Z,12.85
2019-03-09T21:55:57.462Z,14.55
2019-03-09T21:58:24.778Z,15.30
2019-03-09T22:00:52.070Z,18.17
2019-03-09T22:03:19.390Z,14.47
2019-03-09T22:05:46.680Z,13.15
2019-03-09T22:08:13.977Z,14.10
2019-03-09T22:10:41.296Z,16.20
2019-03-09T22:13:08.583Z,13.83
2019-03-09T22:15:35.888Z,15.32
2019-03-09T22:18:03.200Z,14.03
2019-03-09T22:20:30.499Z,16.75
2019-03-09T22:22:57.796Z,19.10
2019-03-09T22:25:25.127Z,16.75
2019-03-09T22:27:52.425Z,16.27
2019-03-09T22:30:20.605Z,18.52
2019-03-09T22:32:47.927Z,20.25
2019-03-09T22:35:15.223Z,22.82
2019-03-09T22:37:42.538Z,22.82
2019-03-09T22:40:11.461Z,22.58
2019-03-09T22:42:38.759Z,21.27
2019-03-09T22:45:07.463Z,21.57
2019-03-09T22:47:34.752Z,20.77
2019-03-09T22:50:02.048Z,22.05
2019-03-09T22:52:29.382Z,22.20
2019-03-09T22:54:56.673Z,23.73
2019-03-09T22:57:23.979Z,24.10
2019-03-09T22:59:51.318Z,23.50
2019-03-09T23:02:18.602Z,20.57
2019-03-09T23:04:45.899Z,19.30
2019-03-09T23:07:13.217Z,21.40
2019-03-09T23:09:40.505Z,25.25
2019-03-09T23:12:07.795Z,18.30
2019-03-09T23:14:35.109Z,22.80
2019-03-09T23:17:02.394Z,19.05
2019-03-09T23:19:29.714Z,19.60
2019-03-09T23:21:57.001Z,16.85
2019-03-09T23:24:24.298Z,17.82
2019-03-09T23:26:51.613Z,17.52
2019-03-09T23:29:18.915Z,13.93
2019-03-09T23:31:46.239Z,17.07
2019-03-09T23:34:13.539Z,16.82
2019-03-09T23:36:40.838Z,16.25
2019-03-09T23:39:08.151Z,15.93
2019-03-09T23:41:35.465Z,16.67
2019-03-09T23:44:02.784Z,16.73
2019-03-09T23:46:30.069Z,19.77
2019-03-09T23:48:57.407Z,18.82
2019-03-09T23:51:24.749Z,17.02
2019-03-09T23:53:52.001Z,18.30
2019-03-09T23:56:19.319Z,18.90
2019-03-09T23:58:46.611Z,17.73
